Terminal Aerodrome Forecast
Issued by NWS

Home | Current Version | Previous Version | Graphics & Text | Print | Product List | Glossary On
Versions: 1 2 3 4 5 6 7 8 9 10 11 12 13 14 15 16 17 18 19 20 21 22 23 24 25 26 27 28
000
FTUS43 KICT 250010 AAA
TAFHUT
TAF AMD
KHUT 250010Z 2500/2524 35008KT P6SM BKN120
     FM250500 01007KT P6SM VCTS SCT035CB BKN090
      TEMPO 2505/2509 3SM +TSRA OVC025CB
     FM250900 02006KT 5SM +SHRA VCTS OVC020CB
     FM251600 04006KT P6SM VCSH SCT035 BKN080
     FM252100 07008KT P6SM VCTS BKN035CB=

USA.gov is the U.S. government's official web portal to all federal, state and local government web resources and services.